Time;durP1;ratioP1;P1;durP2;ratioP2;P2;SDS_P1;SDS_P2;PMS_P1;PMS_P2;Temp;Humidity;BMP_temperature;BMP_pressure;BME280_temperature;BME280_humidity;BME280_pressure;Samples;Min_cycle;Max_cycle;Signal;HPM_P1;HPM_P2
2022/01/18 00:00:48;;;;;;;15.88;4.47;;;7.30;99.90;;;;;;5113499;28;20176;-56
2022/01/18 00:03:15;;;;;;;18.52;3.80;;;7.20;99.90;;;;;;5113438;28;20176;-54
2022/01/18 00:05:45;;;;;;;24.17;4.40;;;7.20;99.90;;;;;;5113053;28;20171;-55
2022/01/18 00:08:12;;;;;;;18.65;3.80;;;7.20;99.90;;;;;;5113229;28;20187;-56
2022/01/18 00:10:37;;;;;;;26.70;4.70;;;7.20;99.90;;;;;;5113191;28;20172;-55
2022/01/18 00:15:43;;;;;;;22.10;4.82;;;7.20;99.90;;;;;;5113584;28;20713;-55
2022/01/18 00:18:13;;;;;;;18.08;4.78;;;7.20;99.90;;;;;;5112965;28;20513;-55
2022/01/18 00:23:13;;;;;;;18.90;4.30;;;7.20;99.90;;;;;;5113260;28;20636;-55
2022/01/18 00:25:42;;;;;;;22.13;4.05;;;7.30;99.90;;;;;;5112964;28;20708;-56
2022/01/18 00:28:08;;;;;;;22.80;4.63;;;7.30;99.90;;;;;;5113074;28;20237;-52
2022/01/18 00:31:08;;;;;;;16.13;3.75;;;7.30;99.90;;;;;;5112846;28;20624;-55
2022/01/18 00:36:01;;;;;;;19.13;4.38;;;7.30;99.90;;;;;;5113004;28;20196;-55
2022/01/18 00:40:57;;;;;;;23.83;5.43;;;7.30;99.90;;;;;;5112908;28;20175;-48
2022/01/18 00:43:22;;;;;;;23.80;4.68;;;7.20;99.90;;;;;;5112673;28;20160;-48
2022/01/18 00:45:48;;;;;;;17.48;3.60;;;7.20;99.90;;;;;;5112821;28;20666;-49
2022/01/18 00:48:14;;;;;;;21.60;5.95;;;7.30;99.90;;;;;;5094312;28;20658;-49
2022/01/18 00:50:40;;;;;;;21.55;4.78;;;7.30;99.90;;;;;;5112580;28;20642;-50
2022/01/18 00:53:10;;;;;;;22.63;4.57;;;7.30;99.90;;;;;;5112755;28;20169;-49
2022/01/18 00:55:47;;;;;;;26.80;5.65;;;7.20;99.90;;;;;;5112653;28;20200;-49
2022/01/18 00:58:13;;;;;;;24.55;4.55;;;7.20;99.90;;;;;;5112476;28;20255;-49
2022/01/18 01:00:38;;;;;;;9.82;3.70;;;7.20;99.90;;;;;;5112449;28;20204;-49
2022/01/18 01:03:04;;;;;;;23.05;4.35;;;7.20;99.90;;;;;;5112391;28;20173;-48
2022/01/18 01:05:30;;;;;;;22.83;4.53;;;7.20;99.90;;;;;;5112591;28;20245;-49
2022/01/18 01:07:55;;;;;;;19.75;4.35;;;7.20;99.90;;;;;;5112032;28;20160;-48
2022/01/18 01:10:21;;;;;;;23.30;4.57;;;7.20;99.90;;;;;;5112251;28;20614;-46
2022/01/18 01:12:46;;;;;;;29.67;5.05;;;7.20;99.90;;;;;;5112562;28;20272;-47
2022/01/18 01:15:14;;;;;;;27.33;4.97;;;7.20;99.90;;;;;;5112264;28;20200;-47
2022/01/18 01:17:48;;;;;;;27.65;5.28;;;7.10;99.90;;;;;;5112520;28;20222;-47
2022/01/18 01:36:43;;;;;;;24.10;4.28;;;7.10;99.90;;;;;;5116669;28;20199;-47
2022/01/18 01:44:45;;;;;;;25.85;4.80;;;7.10;99.90;;;;;;5116590;28;20156;-51
2022/01/18 01:47:16;;;;;;;22.23;5.95;;;7.10;99.90;;;;;;5116001;28;20196;-53
2022/01/18 01:49:43;;;;;;;16.00;4.20;;;7.10;99.90;;;;;;5116078;28;20161;-54
2022/01/18 01:52:10;;;;;;;21.50;5.28;;;7.10;99.90;;;;;;5115794;28;20636;-55
2022/01/18 01:54:37;;;;;;;23.10;5.90;;;7.10;99.90;;;;;;5097421;28;20165;-55
2022/01/18 01:57:03;;;;;;;21.25;4.50;;;7.10;99.90;;;;;;5115982;28;20173;-52
2022/01/18 01:59:29;;;;;;;23.75;4.90;;;7.10;99.90;;;;;;5116053;28;20519;-54
2022/01/18 02:01:55;;;;;;;23.65;6.00;;;7.10;99.90;;;;;;5115658;28;20164;-53
2022/01/18 02:04:20;;;;;;;21.95;5.38;;;7.10;99.90;;;;;;5115590;28;20522;-54
2022/01/18 02:06:46;;;;;;;28.80;6.13;;;7.10;99.90;;;;;;5115604;28;20188;-55
2022/01/18 02:09:12;;;;;;;23.92;5.57;;;7.10;99.90;;;;;;5115538;28;20172;-55
2022/01/18 02:11:38;;;;;;;22.20;5.38;;;7.10;99.90;;;;;;5115342;28;20263;-54
2022/01/18 02:14:06;;;;;;;19.95;5.45;;;7.10;99.90;;;;;;5115427;28;20632;-55
2022/01/18 02:22:04;;;;;;;29.80;6.05;;;7.10;99.90;;;;;;5115369;28;20222;-54
2022/01/18 02:24:29;;;;;;;13.55;4.53;;;7.10;99.90;;;;;;5115547;28;20260;-53
2022/01/18 02:26:55;;;;;;;23.17;5.20;;;7.10;99.90;;;;;;5115239;28;20204;-54
2022/01/18 02:29:20;;;;;;;19.55;4.60;;;7.10;99.90;;;;;;5115173;28;20161;-55
2022/01/18 02:31:46;;;;;;;17.33;4.68;;;7.10;99.90;;;;;;5115095;28;20175;-54
2022/01/18 02:34:16;;;;;;;21.95;4.28;;;7.10;99.90;;;;;;5115007;28;20221;-55
2022/01/18 02:36:41;;;;;;;16.17;3.83;;;7.10;99.90;;;;;;5114980;28;20663;-55
2022/01/18 02:39:08;;;;;;;16.23;3.83;;;7.10;99.90;;;;;;5115193;28;20165;-55
2022/01/18 02:41:35;;;;;;;16.48;4.10;;;7.10;99.90;;;;;;5115158;28;20176;-55
2022/01/18 02:44:06;;;;;;;15.63;4.40;;;7.10;99.90;;;;;;5115298;28;20167;-54
2022/01/18 02:46:32;;;;;;;22.08;5.03;;;7.10;99.90;;;;;;5114728;28;20172;-50
2022/01/18 02:48:59;;;;;;;16.20;4.30;;;7.10;99.90;;;;;;5115064;28;20619;-55
2022/01/18 02:51:25;;;;;;;27.33;5.20;;;7.10;99.90;;;;;;5114764;28;20165;-54
2022/01/18 02:53:57;;;;;;;15.13;4.40;;;7.10;99.90;;;;;;5114702;28;20173;-55
2022/01/18 02:56:24;;;;;;;22.13;5.47;;;7.10;99.90;;;;;;5114620;28;20196;-55
2022/01/18 02:58:49;;;;;;;21.00;4.80;;;7.10;99.90;;;;;;5114578;28;20179;-55
2022/01/18 03:03:59;;;;;;;22.75;5.32;;;7.10;99.90;;;;;;5114893;28;20226;-54
2022/01/18 03:06:25;;;;;;;17.95;4.07;;;7.10;99.90;;;;;;5114427;28;20168;-54
2022/01/18 03:08:50;;;;;;;23.85;6.00;;;7.10;99.90;;;;;;5114380;28;20218;-53
2022/01/18 03:11:16;;;;;;;24.75;5.75;;;7.00;99.90;;;;;;5114177;28;20311;-52
2022/01/18 03:13:41;;;;;;;18.40;4.82;;;7.10;99.90;;;;;;5114503;28;20197;-54
2022/01/18 03:16:07;;;;;;;25.33;4.93;;;7.10;99.90;;;;;;5114147;28;20215;-50
2022/01/18 03:18:32;;;;;;;19.17;5.25;;;7.00;99.90;;;;;;5114173;28;20179;-50
2022/01/18 03:20:58;;;;;;;22.98;5.35;;;7.00;99.90;;;;;;5114491;28;20251;-48
2022/01/18 03:23:24;;;;;;;23.83;5.88;;;7.00;99.90;;;;;;5114092;28;20676;-50
2022/01/18 03:25:56;;;;;;;32.50;5.80;;;7.00;99.90;;;;;;5114284;28;20251;-50
2022/01/18 03:28:23;;;;;;;26.40;5.55;;;7.00;99.90;;;;;;5114277;28;20582;-49
2022/01/18 03:30:54;;;;;;;17.98;5.18;;;7.00;99.90;;;;;;5113891;28;20161;-50
2022/01/18 03:33:22;;;;;;;32.38;5.97;;;7.10;99.90;;;;;;5113856;28;20576;-50
2022/01/18 03:35:50;;;;;;;25.30;6.15;;;7.10;99.90;;;;;;5113794;28;20200;-56
2022/01/18 03:38:18;;;;;;;21.50;5.85;;;7.10;99.90;;;;;;5113800;28;20161;-55
2022/01/18 03:40:45;;;;;;;27.88;6.30;;;7.10;99.90;;;;;;5114034;28;20180;-55
2022/01/18 03:43:12;;;;;;;25.40;6.30;;;7.00;99.90;;;;;;5113657;28;20171;-55
2022/01/18 03:45:44;;;;;;;23.33;6.38;;;7.00;99.90;;;;;;5113572;28;20161;-56
2022/01/18 03:48:25;;;;;;;32.50;6.82;;;7.00;99.90;;;;;;5113804;28;20591;-56
2022/01/18 03:50:51;;;;;;;27.50;6.63;;;7.00;99.90;;;;;;5113765;28;20172;-49
2022/01/18 03:53:19;;;;;;;29.75;6.28;;;7.00;99.90;;;;;;5113417;28;20180;-55
2022/01/18 03:55:45;;;;;;;25.42;5.65;;;7.00;99.90;;;;;;5112871;28;20245;-55
2022/01/18 03:58:10;;;;;;;25.17;6.82;;;7.00;99.90;;;;;;5113402;28;20165;-55
2022/01/18 04:00:36;;;;;;;25.70;6.40;;;7.00;99.90;;;;;;5113368;28;20192;-55
2022/01/18 04:03:02;;;;;;;22.30;5.22;;;7.00;99.90;;;;;;5113330;28;20226;-53
2022/01/18 04:05:27;;;;;;;27.25;5.95;;;7.00;99.90;;;;;;5113632;28;20244;-55
2022/01/18 04:07:53;;;;;;;28.40;6.53;;;7.00;99.90;;;;;;5113253;28;20535;-54
2022/01/18 04:10:18;;;;;;;20.05;5.57;;;7.00;99.90;;;;;;5113156;28;20535;-56
2022/01/18 04:12:44;;;;;;;34.78;6.30;;;7.00;99.90;;;;;;5094721;28;20216;-55
2022/01/18 04:15:12;;;;;;;27.63;6.35;;;7.00;99.90;;;;;;5113340;28;20196;-55
2022/01/18 04:28:23;;;;;;;25.42;6.45;;;6.90;99.90;;;;;;5113140;28;20164;-48
2022/01/18 04:30:48;;;;;;;25.52;7.25;;;6.90;99.90;;;;;;5112810;28;20643;-47
2022/01/18 04:33:14;;;;;;;34.50;6.95;;;6.90;99.90;;;;;;5112825;28;20193;-47
2022/01/18 04:35:39;;;;;;;26.48;6.30;;;7.00;99.90;;;;;;5112968;28;20291;-49
2022/01/18 04:38:05;;;;;;;25.33;6.68;;;6.90;99.90;;;;;;5112615;28;20164;-55
2022/01/18 04:40:32;;;;;;;29.13;6.55;;;7.00;99.90;;;;;;5112793;28;20195;-55
2022/01/18 04:43:12;;;;;;;29.00;7.25;;;7.00;99.90;;;;;;5113000;28;20175;-55
2022/01/18 04:48:27;;;;;;;21.70;6.80;;;6.90;99.90;;;;;;5112939;28;20171;-56
2022/01/18 04:50:55;;;;;;;28.13;7.00;;;6.90;99.90;;;;;;5112820;28;20169;-55
2022/01/18 04:53:20;;;;;;;23.75;6.60;;;6.80;99.90;;;;;;5112563;28;20504;-55
2022/01/18 04:55:52;;;;;;;22.73;7.70;;;6.80;99.90;;;;;;5112646;28;20206;-54
2022/01/18 04:58:18;;;;;;;35.05;7.35;;;6.80;99.90;;;;;;5112382;28;20631;-48
2022/01/18 05:00:44;;;;;;;24.52;7.18;;;6.80;99.90;;;;;;5112122;28;20167;-52
2022/01/18 05:03:09;;;;;;;30.85;7.20;;;6.80;99.90;;;;;;5112172;28;20192;-48
2022/01/18 05:05:37;;;;;;;39.42;7.05;;;6.80;99.90;;;;;;5094080;28;20175;-49
2022/01/18 05:08:05;;;;;;;31.08;6.90;;;6.80;99.90;;;;;;5116386;28;20594;-48
2022/01/18 05:10:31;;;;;;;25.27;6.55;;;6.80;99.90;;;;;;5117070;28;20168;-50
2022/01/18 05:13:02;;;;;;;32.88;9.02;;;6.80;99.90;;;;;;5116972;28;20195;-49
2022/01/18 05:23:07;;;;;;;26.83;7.00;;;6.80;99.90;;;;;;5116384;28;20157;-50
2022/01/18 05:25:33;;;;;;;22.27;6.88;;;6.80;99.90;;;;;;5116652;28;20557;-49
2022/01/18 05:28:01;;;;;;;27.27;7.60;;;6.80;99.90;;;;;;5116512;28;20175;-49
2022/01/18 05:30:28;;;;;;;26.13;6.63;;;6.80;99.90;;;;;;5116528;28;20571;-51
2022/01/18 05:32:54;;;;;;;32.30;8.43;;;6.80;99.90;;;;;;5116189;28;20646;-51
2022/01/18 05:35:20;;;;;;;26.30;7.85;;;6.80;99.90;;;;;;5116058;28;20192;-48
2022/01/18 05:37:49;;;;;;;23.65;6.78;;;6.80;99.90;;;;;;5116152;28;20529;-52
2022/01/18 05:40:16;;;;;;;24.17;7.20;;;6.80;99.90;;;;;;5115711;28;20552;-53
2022/01/18 05:42:43;;;;;;;37.17;8.95;;;6.70;99.90;;;;;;5116041;28;20699;-52
2022/01/18 05:45:09;;;;;;;24.55;6.85;;;6.80;99.90;;;;;;5116009;28;20203;-49
2022/01/18 05:47:35;;;;;;;26.08;7.78;;;6.80;99.90;;;;;;5116040;28;20273;-50
2022/01/18 05:50:02;;;;;;;25.70;7.18;;;6.80;99.90;;;;;;5115995;28;20473;-48
2022/01/18 05:52:28;;;;;;;27.55;7.43;;;6.80;99.90;;;;;;5116060;28;20620;-52
2022/01/18 05:54:53;;;;;;;28.92;7.60;;;6.80;99.90;;;;;;5115614;28;20222;-54
2022/01/18 05:57:19;;;;;;;32.55;6.90;;;6.80;99.90;;;;;;5115603;28;20193;-54
2022/01/18 05:59:46;;;;;;;23.70;5.65;;;6.70;99.90;;;;;;5115585;28;20161;-54
2022/01/18 06:02:32;;;;;;;28.98;6.40;;;6.70;99.90;;;;;;5115829;28;20176;-53
2022/01/18 06:07:41;;;;;;;30.35;6.03;;;6.70;99.90;;;;;;5115816;28;20334;-55
2022/01/18 06:10:07;;;;;;;21.73;6.18;;;6.80;99.90;;;;;;5115483;28;20595;-55
2022/01/18 06:12:33;;;;;;;24.60;6.50;;;6.80;99.90;;;;;;5115199;28;20265;-53
2022/01/18 06:14:59;;;;;;;27.17;7.32;;;6.80;99.90;;;;;;5115630;28;20205;-55
2022/01/18 06:17:25;;;;;;;22.95;6.90;;;6.80;99.90;;;;;;5114770;28;20256;-53
2022/01/18 06:19:51;;;;;;;27.23;7.10;;;6.80;99.90;;;;;;5115285;28;20235;-55
2022/01/18 06:22:17;;;;;;;24.77;7.40;;;6.70;99.90;;;;;;5115275;28;20169;-54
2022/01/18 06:24:42;;;;;;;26.20;6.75;;;6.80;99.90;;;;;;5115122;28;20176;-55
2022/01/18 06:27:09;;;;;;;23.60;6.75;;;6.80;99.90;;;;;;5115149;28;20237;-54
2022/01/18 06:29:35;;;;;;;31.60;7.30;;;6.80;99.90;;;;;;5115066;28;20161;-55
2022/01/18 06:32:01;;;;;;;26.13;6.10;;;6.80;99.90;;;;;;5115373;28;20176;-54
2022/01/18 06:34:27;;;;;;;29.20;6.65;;;6.80;99.90;;;;;;5115228;28;20160;-54
2022/01/18 06:36:53;;;;;;;26.85;7.18;;;6.80;99.90;;;;;;5114897;28;20237;-55
2022/01/18 06:39:19;;;;;;;32.47;7.07;;;6.80;99.90;;;;;;5114870;28;20165;-55
2022/01/18 06:41:45;;;;;;;27.83;7.43;;;6.90;99.90;;;;;;5114766;28;20688;-51
2022/01/18 06:44:10;;;;;;;18.88;6.30;;;6.80;99.90;;;;;;5115085;28;20196;-55
2022/01/18 06:46:36;;;;;;;33.35;6.47;;;6.70;99.90;;;;;;5114740;28;20199;-55
2022/01/18 06:49:02;;;;;;;23.15;7.53;;;6.70;99.90;;;;;;5114588;28;20168;-53
2022/01/18 06:51:27;;;;;;;21.10;6.68;;;6.80;99.90;;;;;;5115064;28;20165;-54
2022/01/18 06:53:53;;;;;;;25.38;7.85;;;6.70;99.90;;;;;;5114864;28;20165;-55
2022/01/18 06:56:20;;;;;;;24.17;7.70;;;6.70;99.90;;;;;;5114494;28;20606;-53
2022/01/18 06:58:46;;;;;;;31.23;8.80;;;6.70;99.90;;;;;;5114521;28;20168;-53
2022/01/18 07:01:13;;;;;;;28.20;7.18;;;6.70;99.90;;;;;;5114485;28;20556;-53
2022/01/18 07:03:40;;;;;;;21.30;7.75;;;6.70;99.90;;;;;;5114445;28;20620;-52
2022/01/18 07:06:05;;;;;;;29.85;8.10;;;6.80;99.90;;;;;;5114407;28;20539;-52
2022/01/18 07:08:31;;;;;;;30.35;8.40;;;6.70;99.90;;;;;;5114156;28;20172;-48
2022/01/18 07:10:57;;;;;;;28.88;8.95;;;6.70;99.90;;;;;;5114431;28;20295;-48
2022/01/18 07:13:23;;;;;;;28.48;9.48;;;6.70;99.90;;;;;;5114170;28;20165;-51
2022/01/18 07:15:49;;;;;;;26.90;9.23;;;6.70;99.90;;;;;;5114123;28;20221;-50
2022/01/18 07:18:14;;;;;;;35.85;8.70;;;6.70;99.90;;;;;;5114116;28;20532;-52
2022/01/18 07:20:41;;;;;;;28.50;8.90;;;6.70;99.90;;;;;;5114165;28;20218;-54
2022/01/18 07:23:11;;;;;;;32.60;10.90;;;6.70;99.90;;;;;;5113970;28;20214;-54
2022/01/18 07:25:46;;;;;;;34.67;10.52;;;6.70;99.90;;;;;;5114167;28;20206;-54
2022/01/18 07:28:14;;;;;;;31.55;10.82;;;6.80;99.90;;;;;;5114111;28;20556;-54
2022/01/18 07:30:39;;;;;;;39.97;12.57;;;6.80;99.90;;;;;;5112918;28;20514;-53
2022/01/18 07:33:06;;;;;;;34.08;11.80;;;6.80;99.90;;;;;;5113858;28;20180;-52
2022/01/18 07:35:34;;;;;;;44.72;13.05;;;6.80;99.90;;;;;;5113570;28;20230;-51
2022/01/18 07:38:00;;;;;;;37.60;12.82;;;6.70;99.90;;;;;;5113977;28;20165;-55
2022/01/18 07:40:27;;;;;;;34.00;11.57;;;6.80;99.90;;;;;;5114047;28;20164;-51
2022/01/18 07:42:54;;;;;;;54.63;21.77;;;6.80;99.90;;;;;;5113601;28;20663;-55
2022/01/18 07:45:20;;;;;;;38.33;13.20;;;6.80;99.90;;;;;;5113534;28;20172;-55
2022/01/18 07:47:46;;;;;;;35.80;11.88;;;6.70;99.90;;;;;;5113528;28;20655;-55
2022/01/18 07:50:11;;;;;;;27.75;11.05;;;6.80;99.90;;;;;;5113386;28;20176;-52
2022/01/18 07:52:37;;;;;;;34.35;10.60;;;6.80;99.90;;;;;;5113389;28;20173;-55
2022/01/18 07:55:06;;;;;;;40.67;12.30;;;6.70;99.90;;;;;;5095051;28;20196;-55
2022/01/18 07:57:32;;;;;;;36.17;11.02;;;6.80;99.90;;;;;;5113339;28;20177;-48
2022/01/18 07:59:57;;;;;;;27.48;11.85;;;6.80;99.90;;;;;;5113627;28;20171;-53
2022/01/18 08:02:23;;;;;;;62.47;25.10;;;6.80;99.90;;;;;;5113201;28;20243;-53
2022/01/18 08:04:49;;;;;;;127.10;45.20;;;6.80;99.90;;;;;;5113224;28;20560;-53
2022/01/18 08:07:15;;;;;;;60.50;23.60;;;6.90;99.90;;;;;;5113265;28;20169;-53
2022/01/18 08:09:40;;;;;;;39.05;12.95;;;6.90;99.90;;;;;;5113212;28;20266;-51
2022/01/18 08:12:06;;;;;;;37.35;10.77;;;6.90;99.90;;;;;;5112864;28;20248;-51
2022/01/18 08:14:33;;;;;;;34.17;10.82;;;6.90;99.90;;;;;;5123358;27;20530;-52
2022/01/18 08:17:00;;;;;;;31.75;10.57;;;6.90;99.90;;;;;;5144228;27;20264;-55
2022/01/18 08:19:32;;;;;;;26.80;9.48;;;6.90;99.90;;;;;;5153432;27;20203;-55
2022/01/18 08:21:58;;;;;;;26.38;11.25;;;6.80;99.90;;;;;;5153179;27;20207;-53
2022/01/18 08:24:24;;;;;;;31.23;10.63;;;6.80;99.90;;;;;;5152944;27;20206;-54
2022/01/18 08:26:49;;;;;;;27.55;10.20;;;6.90;99.90;;;;;;5153232;27;20639;-55
2022/01/18 08:29:15;;;;;;;28.55;11.00;;;6.90;99.90;;;;;;5152869;27;20208;-52
2022/01/18 08:31:41;;;;;;;32.95;9.82;;;6.90;99.90;;;;;;5152784;27;20499;-53
2022/01/18 08:34:07;;;;;;;32.35;11.60;;;6.90;99.90;;;;;;5152796;27;20167;-53
2022/01/18 08:36:33;;;;;;;33.70;11.30;;;6.90;99.90;;;;;;5152673;27;20207;-56
2022/01/18 08:39:00;;;;;;;27.30;10.98;;;7.00;99.90;;;;;;5153053;27;20242;-52
2022/01/18 08:41:26;;;;;;;48.20;15.73;;;7.00;99.90;;;;;;5152560;27;20182;-54
2022/01/18 08:43:52;;;;;;;37.58;14.70;;;7.00;99.90;;;;;;5152630;27;20171;-51
2022/01/18 08:46:18;;;;;;;31.27;10.05;;;7.00;99.90;;;;;;5152737;27;20172;-50
2022/01/18 08:48:44;;;;;;;32.13;11.27;;;7.00;99.90;;;;;;5152573;27;20167;-50
2022/01/18 08:51:09;;;;;;;50.75;21.80;;;7.00;99.90;;;;;;5152485;27;20170;-48
2022/01/18 08:53:37;;;;;;;34.72;11.45;;;7.00;99.90;;;;;;5152352;27;20167;-48
2022/01/18 08:56:03;;;;;;;39.15;10.85;;;7.00;99.90;;;;;;5152695;27;20259;-47
2022/01/18 08:58:28;;;;;;;29.58;10.73;;;7.10;99.90;;;;;;5152703;27;20521;-55
2022/01/18 09:00:54;;;;;;;33.65;11.48;;;7.10;99.90;;;;;;5152402;27;20171;-47
2022/01/18 09:03:21;;;;;;;33.00;11.02;;;7.10;99.90;;;;;;5152320;27;20167;-50
2022/01/18 09:05:47;;;;;;;32.88;10.75;;;7.10;99.90;;;;;;5152618;27;20189;-49
2022/01/18 09:08:13;;;;;;;37.78;12.07;;;7.10;99.90;;;;;;5152370;27;20622;-47
2022/01/18 09:10:41;;;;;;;39.28;13.40;;;7.20;99.90;;;;;;5152130;27;20159;-48
2022/01/18 09:13:07;;;;;;;38.75;13.68;;;7.20;99.90;;;;;;5152361;27;20175;-46
2022/01/18 09:15:33;;;;;;;42.70;13.23;;;7.30;99.90;;;;;;5152135;27;20199;-47
2022/01/18 09:17:58;;;;;;;42.13;14.73;;;7.30;99.90;;;;;;5152471;27;20175;-54
2022/01/18 09:20:24;;;;;;;51.20;13.55;;;7.20;99.90;;;;;;5152536;27;20163;-53
2022/01/18 09:22:52;;;;;;;39.67;12.55;;;7.30;99.90;;;;;;5152342;27;20432;-48
2022/01/18 09:25:27;;;;;;;35.00;12.30;;;7.20;99.90;;;;;;5134230;27;20179;-47
2022/01/18 09:27:54;;;;;;;39.55;12.02;;;7.30;99.90;;;;;;5152316;27;20208;-47
2022/01/18 09:30:21;;;;;;;31.88;11.40;;;7.30;99.90;;;;;;5152169;27;20247;-46
2022/01/18 09:32:48;;;;;;;37.88;11.93;;;7.30;99.90;;;;;;5152367;27;20186;-47
2022/01/18 09:35:15;;;;;;;37.40;12.10;;;7.40;99.90;;;;;;5151738;27;20729;-48
2022/01/18 09:37:41;;;;;;;62.17;27.40;;;7.40;99.90;;;;;;5151857;27;20167;-48
2022/01/18 09:40:09;;;;;;;38.58;14.68;;;7.50;99.90;;;;;;5152161;27;20167;-46
2022/01/18 09:42:37;;;;;;;37.13;12.82;;;7.50;99.90;;;;;;5152022;27;20178;-47
2022/01/18 09:45:15;;;;;;;35.78;13.18;;;7.60;99.90;;;;;;5152051;27;20182;-48
2022/01/18 09:47:47;;;;;;;35.25;13.23;;;7.60;99.90;;;;;;5152174;27;20538;-47
2022/01/18 09:50:17;;;;;;;34.63;14.43;;;7.60;99.90;;;;;;5152280;27;20167;-47
2022/01/18 09:52:43;;;;;;;33.08;11.57;;;7.70;99.90;;;;;;5153146;27;20164;-46
2022/01/18 09:55:10;;;;;;;35.70;11.98;;;7.80;99.90;;;;;;5155796;27;20244;-47
2022/01/18 09:57:37;;;;;;;34.67;11.70;;;7.90;99.90;;;;;;5155798;27;20639;-47
2022/01/18 10:00:05;;;;;;;38.58;11.65;;;7.80;99.90;;;;;;5155780;27;20246;-50
2022/01/18 10:02:31;;;;;;;36.28;11.20;;;7.80;99.90;;;;;;5156121;27;20549;-48
2022/01/18 10:04:59;;;;;;;42.10;11.43;;;7.80;99.90;;;;;;5155858;27;20164;-52
2022/01/18 10:07:35;;;;;;;31.33;10.85;;;7.80;99.90;;;;;;5155538;27;20172;-52
2022/01/18 10:10:05;;;;;;;33.50;10.50;;;7.80;99.90;;;;;;5156122;27;20170;-46
2022/01/18 10:12:31;;;;;;;30.73;11.07;;;7.80;99.90;;;;;;5155741;27;20219;-50
2022/01/18 10:14:59;;;;;;;28.02;11.18;;;7.80;99.90;;;;;;5155720;27;20164;-46
2022/01/18 10:17:32;;;;;;;34.15;11.40;;;7.90;99.90;;;;;;5133803;27;20180;-46
2022/01/18 10:20:15;;;;;;;33.90;11.60;;;7.90;99.90;;;;;;5135439;27;20262;-47
2022/01/18 10:22:42;;;;;;;30.50;11.52;;;7.90;99.90;;;;;;5134847;27;20164;-49
2022/01/18 10:25:26;;;;;;;28.77;10.40;;;8.00;99.90;;;;;;5134761;27;20164;-47
2022/01/18 10:27:53;;;;;;;31.75;11.45;;;8.00;99.90;;;;;;5134769;27;20254;-47
2022/01/18 10:30:32;;;;;;;25.63;11.68;;;8.00;99.90;;;;;;5134380;27;20172;-47
2022/01/18 10:33:12;;;;;;;26.77;11.63;;;8.00;99.90;;;;;;5134626;27;20623;-47
2022/01/18 10:36:10;;;;;;;27.25;11.45;;;7.90;99.90;;;;;;5134556;27;20235;-46
2022/01/18 10:38:41;;;;;;;26.00;12.75;;;8.00;99.90;;;;;;5134333;27;20258;-47
2022/01/18 10:41:24;;;;;;;32.78;13.73;;;8.00;99.90;;;;;;5134200;27;20206;-47
2022/01/18 10:44:09;;;;;;;31.30;12.80;;;8.00;99.90;;;;;;5134429;27;20250;-47
2022/01/18 10:46:56;;;;;;;28.88;12.52;;;7.90;99.90;;;;;;5134217;27;20179;-46
2022/01/18 10:49:36;;;;;;;31.60;13.45;;;7.90;99.90;;;;;;5134262;27;20214;-48
2022/01/18 10:52:08;;;;;;;30.40;11.10;;;8.00;99.90;;;;;;5134325;27;20172;-47
2022/01/18 10:54:48;;;;;;;37.38;11.98;;;8.00;99.90;;;;;;5134161;27;20168;-50
2022/01/18 10:57:21;;;;;;;26.40;11.30;;;8.10;99.90;;;;;;5134141;27;20543;-49
2022/01/18 10:59:48;;;;;;;28.90;11.23;;;8.10;99.90;;;;;;5133934;27;20164;-46
2022/01/18 11:02:18;;;;;;;25.88;10.23;;;8.10;99.90;;;;;;5134146;27;20180;-48
2022/01/18 11:04:49;;;;;;;28.90;11.25;;;8.10;99.90;;;;;;5132579;27;20156;-47
2022/01/18 11:07:18;;;;;;;24.88;11.25;;;8.20;99.90;;;;;;5133618;27;20187;-48
2022/01/18 11:09:45;;;;;;;28.73;11.13;;;8.20;99.90;;;;;;5133722;27;20168;-51
2022/01/18 11:12:11;;;;;;;26.23;11.90;;;8.30;99.90;;;;;;5133489;27;20260;-47
2022/01/18 11:14:40;;;;;;;35.47;12.52;;;8.40;99.90;;;;;;5133760;27;20168;-47
2022/01/18 11:17:13;;;;;;;20.40;9.15;;;8.40;99.90;;;;;;5133765;27;20222;-50
2022/01/18 11:19:39;;;;;;;156.65;23.08;;;8.30;99.90;;;;;;5133752;27;20247;-48
2022/01/18 11:22:10;;;;;;;58.90;11.57;;;8.40;99.90;;;;;;5133437;27;20781;-50
2022/01/18 11:24:38;;;;;;;28.15;10.18;;;8.50;99.90;;;;;;5133540;27;20215;-50
2022/01/18 11:27:08;;;;;;;27.52;12.88;;;8.60;99.90;;;;;;5133579;27;20172;-53
2022/01/18 11:29:35;;;;;;;22.00;10.57;;;8.60;99.90;;;;;;5133388;27;20175;-55
2022/01/18 11:32:02;;;;;;;56.70;14.98;;;8.60;99.90;;;;;;5133536;27;20179;-52
2022/01/18 11:34:46;;;;;;;94.18;17.83;;;8.70;99.90;;;;;;5115451;27;20247;-53
2022/01/18 11:37:34;;;;;;;54.42;16.23;;;8.70;99.90;;;;;;5132568;27;20200;-53
2022/01/18 11:40:02;;;;;;;43.17;14.10;;;8.90;99.90;;;;;;5133229;27;20168;-51
2022/01/18 11:42:51;;;;;;;51.90;17.05;;;9.00;99.90;;;;;;5132985;27;20172;-54
2022/01/18 11:45:39;;;;;;;39.75;14.82;;;9.10;99.90;;;;;;5132690;27;20172;-51
2022/01/18 11:48:15;;;;;;;30.35;14.38;;;9.10;99.90;;;;;;5132603;27;20566;-54
2022/01/18 11:50:50;;;;;;;27.40;12.55;;;9.10;99.90;;;;;;5132748;27;20622;-54
2022/01/18 11:53:38;;;;;;;141.80;21.15;;;9.10;99.90;;;;;;5132494;27;20171;-53
2022/01/18 11:56:04;;;;;;;44.17;14.75;;;9.20;99.90;;;;;;5132844;27;20246;-53
2022/01/18 11:58:31;;;;;;;32.17;11.50;;;9.30;99.90;;;;;;5133061;27;20193;-55
2022/01/18 12:01:01;;;;;;;23.98;11.98;;;9.20;99.90;;;;;;5133204;27;20586;-50
2022/01/18 12:03:29;;;;;;;34.88;12.27;;;9.30;99.90;;;;;;5132965;27;20163;-54
2022/01/18 12:05:57;;;;;;;28.35;12.45;;;9.30;99.90;;;;;;5132563;27;20730;-55
2022/01/18 12:08:36;;;;;;;28.02;11.20;;;9.30;99.90;;;;;;5132586;27;20176;-53
2022/01/18 12:11:08;;;;;;;26.42;10.18;;;9.30;99.90;;;;;;5132327;27;20678;-53
2022/01/18 12:13:36;;;;;;;26.80;11.32;;;9.40;99.90;;;;;;5132267;27;20172;-54
2022/01/18 12:16:09;;;;;;;26.92;10.73;;;9.40;99.90;;;;;;5131939;27;20234;-52
2022/01/18 12:18:34;;;;;;;23.58;8.88;;;9.40;99.90;;;;;;5132456;27;20591;-55
2022/01/18 12:21:03;;;;;;;23.38;9.68;;;9.30;99.90;;;;;;5132458;27;20196;-55
2022/01/18 12:23:49;;;;;;;18.08;8.57;;;9.40;99.90;;;;;;5132201;27;20596;-55
2022/01/18 12:29:22;;;;;;;20.85;8.55;;;9.30;99.90;;;;;;5132680;27;20690;-55
2022/01/18 12:34:41;;;;;;;25.63;8.80;;;9.40;99.90;;;;;;5132074;27;20539;-54
2022/01/18 12:37:24;;;;;;;25.55;12.48;;;9.30;99.90;;;;;;5131847;27;20743;-54
2022/01/18 12:39:49;;;;;;;26.10;10.00;;;9.30;99.90;;;;;;5131001;27;20208;-55
2022/01/18 12:44:20;;;;;;;24.02;10.82;;;9.30;99.90;;;;;;5132201;27;20199;-55
2022/01/18 12:45:03;;;;;;;24.52;10.60;;;9.30;99.90;;;;;;5132003;27;20179;-53
2022/01/18 12:47:29;;;;;;;27.20;12.65;;;9.30;99.90;;;;;;5132177;27;20172;-53
2022/01/18 12:49:56;;;;;;;23.92;11.07;;;9.20;99.90;;;;;;5131726;27;20635;-55
2022/01/18 12:52:22;;;;;;;20.77;10.27;;;9.10;99.90;;;;;;5131772;27;20172;-53
2022/01/18 12:54:48;;;;;;;28.27;11.55;;;9.10;99.90;;;;;;5131804;27;20178;-50
2022/01/18 12:57:16;;;;;;;30.05;11.57;;;9.00;99.90;;;;;;5131815;27;20211;-52
2022/01/18 13:00:14;;;;;;;24.05;9.82;;;9.00;99.90;;;;;;5113322;27;20552;-50
2022/01/18 13:02:45;;;;;;;21.83;9.95;;;9.00;99.90;;;;;;5131588;27;20172;-50
2022/01/18 13:05:11;;;;;;;23.60;9.27;;;8.90;99.90;;;;;;5131756;27;20168;-49
2022/01/18 13:07:53;;;;;;;23.77;10.05;;;8.80;99.90;;;;;;5131585;27;20641;-54
2022/01/18 13:10:32;;;;;;;20.88;9.10;;;8.70;99.90;;;;;;5131356;27;20174;-48
2022/01/18 13:12:59;;;;;;;21.75;11.70;;;8.70;99.90;;;;;;5131692;27;20192;-54
2022/01/18 13:15:40;;;;;;;22.25;12.13;;;8.70;99.90;;;;;;5131327;27;20192;-54
2022/01/18 13:22:57;;;;;;;27.73;10.98;;;8.50;99.90;;;;;;5129813;27;20236;-55
2022/01/18 13:26:34;;;;;;;26.35;11.60;;;8.50;99.90;;;;;;5131494;27;20615;-47
2022/01/18 13:29:15;;;;;;;29.95;11.70;;;8.50;99.90;;;;;;5135099;27;20171;-48
2022/01/18 13:31:45;;;;;;;19.00;9.80;;;8.50;99.90;;;;;;5135579;27;20196;-55
2022/01/18 13:34:13;;;;;;;29.80;11.15;;;8.50;99.90;;;;;;5135299;27;20230;-50
2022/01/18 13:36:55;;;;;;;20.25;9.18;;;8.50;99.90;;;;;;5135331;27;20221;-52
2022/01/18 13:39:33;;;;;;;21.27;10.73;;;8.50;99.90;;;;;;5135441;27;20171;-49
2022/01/18 13:42:00;;;;;;;22.77;11.20;;;8.50;99.90;;;;;;5135548;27;20166;-54
2022/01/18 13:44:27;;;;;;;21.27;10.05;;;8.50;99.90;;;;;;5135063;27;20237;-51
2022/01/18 13:46:53;;;;;;;25.70;10.68;;;8.60;99.90;;;;;;5135139;27;20680;-50
2022/01/18 13:49:23;;;;;;;22.38;9.85;;;8.50;99.90;;;;;;5135108;27;20180;-49
2022/01/18 13:52:05;;;;;;;27.92;10.13;;;8.50;99.90;;;;;;5135358;27;20164;-53
2022/01/18 13:54:53;;;;;;;21.92;10.35;;;8.50;99.90;;;;;;5135117;27;20179;-45
2022/01/18 13:57:21;;;;;;;21.85;10.30;;;8.50;99.90;;;;;;5135104;27;20211;-56
2022/01/18 13:59:49;;;;;;;23.20;11.23;;;8.40;99.90;;;;;;5134964;27;20209;-48
2022/01/18 14:02:17;;;;;;;20.38;9.20;;;8.40;99.90;;;;;;5116443;27;20565;-52
2022/01/18 14:04:44;;;;;;;27.35;10.65;;;8.40;99.90;;;;;;5134782;27;20166;-53
2022/01/18 14:07:10;;;;;;;20.95;10.10;;;8.50;99.90;;;;;;5135020;27;20191;-50